Asahi Maru No.8 — JI3547 — position and weather

sailwx.info

Track history (hours):
 
Tides and Currents Weather Stations Pressure Air Temp Water Temp Dewpoint Dewpoint Depression Visibility Wind Speed Wind Dir Waves Ship Positions

Asahi Maru No.8

Last reported at 2017-Dec-18 22:00 UTC. Time now 2017-Dec-18 22:25 UTC.
Position N 34°10' E 135°06'.

Length 67 m.

Type: Tanker. MMSI: 431300304.

Date/timePositionNaut miles runAvg speedWind from/ knotsBaromVisibWave heightAir tempDewpointWater temp
2017-Dec-18 22:00N 34°10' E 135°06'4 2.8
2017-Dec-18 20:34N 34°07' E 135°09'0 0.0
2017-Dec-18 20:28N 34°07' E 135°09'0 0.0
2017-Dec-18 17:04N 34°07' E 135°09'0 0.1
2017-Dec-18 16:40N 34°07' E 135°09'0 0.0
2017-Dec-18 16:28N 34°07' E 135°09'3 0.3
2017-Dec-18 05:05N 34°10' E 135°06'111.1
2017-Dec-18 04:59N 34°11' E 135°06'611.1
2017-Dec-18 04:25N 34°17' E 135°03'511.9
2017-Dec-18 04:00N 34°21' E 135°06'611.3
2017-Dec-18 03:30N 34°25' E 135°11'510.8
2017-Dec-18 03:00N 34°29' E 135°16'510.6
2017-Dec-18 02:30N 34°32' E 135°21'4 8.1
2017-Dec-18 01:59N 34°33' E 135°26'0 0.0
2017-Dec-18 01:29N 34°33' E 135°26'0 0.0
2017-Dec-18 00:59N 34°33' E 135°26'0 0.0
2017-Dec-18 00:29N 34°33' E 135°26'0 0.0
2017-Dec-17 23:59N 34°33' E 135°26'0 0.0
2017-Dec-17 23:29N 34°33' E 135°26'2 4.4
2017-Dec-17 23:00N 34°32' E 135°24'1 1.2
2017-Dec-17 22:29N 34°31' E 135°24'0 0.0
2017-Dec-17 22:00N 34°31' E 135°24'0 0.0
2017-Dec-17 21:26N 34°31' E 135°24'0 0.0
2017-Dec-17 20:56N 34°31' E 135°24'0 0.0
2017-Dec-17 20:29N 34°31' E 135°24'0 0.0
2017-Dec-17 19:56N 34°31' E 135°24'0 0.0
2017-Dec-17 19:29N 34°31' E 135°24'0 0.0
2017-Dec-17 18:59N 34°31' E 135°24'0 0.0
2017-Dec-17 18:29N 34°31' E 135°24'0 0.0
2017-Dec-17 17:59N 34°31' E 135°24'0 0.0
2017-Dec-17 17:29N 34°31' E 135°24'0 0.0
2017-Dec-17 16:59N 34°31' E 135°24'0 0.0
2017-Dec-17 16:26N 34°31' E 135°24'0 0.0
2017-Dec-17 15:59N 34°31' E 135°24'0 0.0
2017-Dec-17 15:29N 34°31' E 135°24'0 0.0
2017-Dec-17 14:59N 34°31' E 135°24'0 0.0
2017-Dec-17 14:29N 34°31' E 135°24'0 0.0
2017-Dec-17 13:59N 34°31' E 135°24'0 0.0
2017-Dec-17 13:29N 34°31' E 135°24'0 0.0
2017-Dec-17 12:59N 34°31' E 135°24'0 0.0
2017-Dec-17 12:29N 34°31' E 135°24'0 0.0
2017-Dec-17 11:59N 34°31' E 135°24'0 0.0
2017-Dec-17 11:29N 34°31' E 135°24'0 0.0
2017-Dec-17 10:59N 34°31' E 135°24'0 0.0
2017-Dec-17 10:26N 34°31' E 135°24'0 0.0
2017-Dec-17 09:59N 34°31' E 135°24'0 0.0
2017-Dec-17 09:29N 34°31' E 135°24'0 0.0
2017-Dec-17 08:59N 34°31' E 135°24'0 0.0
2017-Dec-17 08:26N 34°31' E 135°24'0 0.0
2017-Dec-17 07:59N 34°31' E 135°24'0 0.0
2017-Dec-17 07:29N 34°31' E 135°24'0 0.0
2017-Dec-17 06:59N 34°31' E 135°24'0 0.0
2017-Dec-17 06:29N 34°31' E 135°24'0 0.0
2017-Dec-17 05:59N 34°31' E 135°24'0 0.0
2017-Dec-17 05:29N 34°31' E 135°24'0 0.0
2017-Dec-17 04:56N 34°31' E 135°24'0 0.0
2017-Dec-17 04:30N 34°31' E 135°24'4 8.1
2017-Dec-17 04:00N 34°32' E 135°20'612.1
2017-Dec-17 03:30N 34°34' E 135°12'612.3
2017-Dec-17 03:00N 34°35' E 135°05'612.7
2017-Dec-17 02:30N 34°37' E 134°58'612.4
2017-Dec-17 01:59N 34°40' E 134°51'3 0.1
2017-Dec-16 07:21N 34°42' E 134°50'3 7.9
2017-Dec-16 06:59N 34°39' E 134°51'4 9.1
2017-Dec-16 06:30N 34°38' E 134°56'5 9.1
2017-Dec-16 06:00N 34°37' E 135°02'4 8.6
2017-Dec-16 05:30N 34°36' E 135°07'5 9.9
2017-Dec-16 05:00N 34°35' E 135°13'510.1
2017-Dec-16 04:30N 34°34' E 135°19'510.2
2017-Dec-16 04:00N 34°33' E 135°25'1 1.9
2017-Dec-16 03:29N 34°33' E 135°26'0 0.0
2017-Dec-16 02:56N 34°33' E 135°26'0 0.0
2017-Dec-16 02:29N 34°33' E 135°26'0 0.0
2017-Dec-16 02:00N 34°33' E 135°26'2 5.1
2017-Dec-16 01:30N 34°35' E 135°24'3 6.7
2017-Dec-16 01:01N 34°38' E 135°23'2 3.1
2017-Dec-16 00:29N 34°39' E 135°25'0 0.0
2017-Dec-15 23:59N 34°39' E 135°25'0 0.0
2017-Dec-15 23:29N 34°39' E 135°25'0 0.0
2017-Dec-15 22:59N 34°39' E 135°25'2 3.3
2017-Dec-15 22:30N 34°38' E 135°23'3 4.9
2017-Dec-15 21:59N 34°36' E 135°23'0 0.0
2017-Dec-15 21:29N 34°36' E 135°23'0 0.0
2017-Dec-15 20:59N 34°36' E 135°23'0 0.1
2017-Dec-15 20:29N 34°36' E 135°23'0 0.1
2017-Dec-15 19:59N 34°36' E 135°23'0 0.0
2017-Dec-15 19:29N 34°36' E 135°23'0 0.0
2017-Dec-15 18:59N 34°36' E 135°23'0 0.0
2017-Dec-15 18:23N 34°36' E 135°23'0 0.0
2017-Dec-15 17:59N 34°36' E 135°23'0 0.0
2017-Dec-15 17:29N 34°36' E 135°23'0 0.0
2017-Dec-15 16:59N 34°36' E 135°23'0 0.0
2017-Dec-15 16:29N 34°36' E 135°23'0 0.0
2017-Dec-15 15:59N 34°36' E 135°23'0 0.0
2017-Dec-15 15:29N 34°36' E 135°23'0 0.0
2017-Dec-15 14:59N 34°36' E 135°23'0 0.0
2017-Dec-15 14:29N 34°36' E 135°23'0 0.0
2017-Dec-15 13:59N 34°36' E 135°23'0 0.0
2017-Dec-15 13:29N 34°36' E 135°23'0 0.0
2017-Dec-15 12:59N 34°36' E 135°23'0 0.0
2017-Dec-15 12:29N 34°36' E 135°23'0 0.1
2017-Dec-15 11:59N 34°36' E 135°23'1 1.9
2017-Dec-15 11:30N 34°35' E 135°22'510.4
2017-Dec-15 11:00N 34°31' E 135°18'510.4
2017-Dec-15 10:30N 34°27' E 135°13'510.6
2017-Dec-15 10:00N 34°24' E 135°09'510.6
2017-Dec-15 09:30N 34°19' E 135°05'510.3
2017-Dec-15 09:00N 34°14' E 135°04'8 2.2
2017-Dec-15 05:22N 34°07' E 135°08'3 9.1
2017-Dec-15 05:00N 34°10' E 135°06'612.3
2017-Dec-15 04:30N 34°16' E 135°03'713.1
2017-Dec-15 04:01N 34°22' E 135°03'1610.8
2017-Dec-15 02:30N 34°37' E 134°56'7 0.4
2017-Dec-14 09:56N 34°42' E 134°50'4 9.1
2017-Dec-14 09:28N 34°38' E 134°53'511.3
2017-Dec-14 09:00N 34°38' E 134°59'611.6
2017-Dec-14 08:30N 34°36' E 135°06'510.6
2017-Dec-14 08:00N 34°35' E 135°12'510.7
2017-Dec-14 07:30N 34°34' E 135°19'510.6
2017-Dec-14 07:00N 34°33' E 135°25'1 1.5
2017-Dec-14 06:30N 34°33' E 135°26'0 0.0
2017-Dec-14 05:59N 34°33' E 135°26'0 0.0
2017-Dec-14 05:26N 34°33' E 135°26'0 0.0
2017-Dec-14 04:59N 34°33' E 135°26'1 2.1
2017-Dec-14 04:30N 34°33' E 135°25'611.6
2017-Dec-14 04:00N 34°34' E 135°18'612.1
2017-Dec-14 03:30N 34°34' E 135°10'612.8
2017-Dec-14 03:00N 34°36' E 135°03'713.5
2017-Dec-14 02:30N 34°38' E 134°55'6 0.9
2017-Dec-13 20:17N 34°42' E 134°50'0 0.0
2017-Dec-13 19:56N 34°42' E 134°50'0 0.1
2017-Dec-13 19:11N 34°42' E 134°50'0 0.0
2017-Dec-13 18:53N 34°42' E 134°50'0 0.0
2017-Dec-13 10:13N 34°42' E 134°50'2 8.7
2017-Dec-13 09:59N 34°40' E 134°51'5 9.4
2017-Dec-13 09:30N 34°38' E 134°55'510.2
2017-Dec-13 09:00N 34°37' E 135°02'510.3
2017-Dec-13 08:30N 34°36' E 135°08'510.0
2017-Dec-13 08:00N 34°35' E 135°13'5 9.8
2017-Dec-13 07:30N 34°34' E 135°19'5 9.8
2017-Dec-13 07:00N 34°33' E 135°25'1 1.0
2017-Dec-13 06:29N 34°33' E 135°26'0 0.0
2017-Dec-13 05:59N 34°33' E 135°26'0 0.0
2017-Dec-13 05:29N 34°33' E 135°26'0 0.0
2017-Dec-13 05:00N 34°33' E 135°26'2 3.8
2017-Dec-13 04:30N 34°33' E 135°24'611.8
2017-Dec-13 04:00N 34°33' E 135°16'612.3
2017-Dec-13 03:30N 34°34' E 135°09'713.4
2017-Dec-13 03:00N 34°37' E 135°02'713.1
2017-Dec-13 02:30N 34°38' E 134°54'5 0.3
2017-Dec-12 08:53N 34°42' E 134°50'5 8.3
2017-Dec-12 08:18N 34°38' E 134°53'310.3
2017-Dec-12 08:00N 34°38' E 134°57'611.1
2017-Dec-12 07:30N 34°36' E 135°04'510.3
2017-Dec-12 07:00N 34°35' E 135°10'510.2
2017-Dec-12 06:30N 34°35' E 135°16'510.2
2017-Dec-12 06:00N 34°34' E 135°22'3 6.4
2017-Dec-12 05:29N 34°33' E 135°26'0 0.0
2017-Dec-12 04:56N 34°33' E 135°26'0 0.0
2017-Dec-12 04:29N 34°33' E 135°26'0 0.0
2017-Dec-12 03:59N 34°33' E 135°26'0 0.0
2017-Dec-12 03:29N 34°33' E 135°26'0 0.2
2017-Dec-12 03:00N 34°33' E 135°26'2 3.6
2017-Dec-12 02:30N 34°33' E 135°24'2 3.9
2017-Dec-12 01:59N 34°31' E 135°24'0 0.0
2017-Dec-12 01:29N 34°31' E 135°24'0 0.0
2017-Dec-12 00:59N 34°31' E 135°24'0 0.0
2017-Dec-12 00:29N 34°31' E 135°24'0 0.0
2017-Dec-11 23:56N 34°31' E 135°24'0 0.0
2017-Dec-11 23:29N 34°31' E 135°24'0 0.0
2017-Dec-11 22:59N 34°31' E 135°24'0 0.0
2017-Dec-11 22:30N 34°31' E 135°24'3 5.7
2017-Dec-11 22:00N 34°32' E 135°21'611.1
2017-Dec-11 21:30N 34°27' E 135°18'3 5.6
2017-Dec-11 21:01N 34°25' E 135°15'0 0.0
2017-Dec-11 20:28N 34°25' E 135°15'0 0.0
2017-Dec-11 19:58N 34°25' E 135°15'0 0.0
2017-Dec-11 19:30N 34°25' E 135°15'0 0.0
2017-Dec-11 19:00N 34°25' E 135°15'0 0.0
2017-Dec-11 18:30N 34°25' E 135°15'0 0.0
2017-Dec-11 18:00N 34°25' E 135°15'0 0.0
2017-Dec-11 17:30N 34°25' E 135°15'0 0.0
2017-Dec-11 17:00N 34°25' E 135°15'0 0.0
2017-Dec-11 16:30N 34°25' E 135°15'0 0.0
2017-Dec-11 16:00N 34°25' E 135°15'0 0.0
2017-Dec-11 15:28N 34°25' E 135°15'0 0.0
2017-Dec-11 14:58N 34°25' E 135°15'0 0.0
2017-Dec-11 14:28N 34°25' E 135°15'0 0.0
2017-Dec-11 13:52N 34°25' E 135°15'0 0.0
2017-Dec-11 13:28N 34°25' E 135°15'0 0.0
2017-Dec-11 12:55N 34°25' E 135°15'0 0.0
2017-Dec-11 12:28N 34°25' E 135°15'0 0.0
2017-Dec-11 12:00N 34°25' E 135°15'0 0.0
2017-Dec-11 11:30N 34°25' E 135°15'0 0.0
2017-Dec-11 11:00N 34°25' E 135°15'0 0.0
2017-Dec-11 10:30N 34°25' E 135°15'0 0.0
2017-Dec-11 09:57N 34°25' E 135°15'0 0.0
2017-Dec-11 09:27N 34°25' E 135°15'0 0.0
2017-Dec-11 09:00N 34°25' E 135°15'0 0.7
2017-Dec-11 08:30N 34°25' E 135°15'611.6
2017-Dec-11 08:00N 34°21' E 135°09'611.7
2017-Dec-11 07:30N 34°18' E 135°04'1 1.1
2017-Dec-11 06:52N 34°17' E 135°04'3 8.7
2017-Dec-11 06:31N 34°15' E 135°06'1 0.4
2017-Dec-11 02:41N 34°14' E 135°08'0 0.7
2017-Dec-11 02:28N 34°14' E 135°08'1 2.0
2017-Dec-11 02:00N 34°14' E 135°06'4 7.5
2017-Dec-11 01:30N 34°11' E 135°06'4 0.2
2017-Dec-10 01:54N 34°07' E 135°07'0 0.0
2017-Dec-10 01:18N 34°07' E 135°07'0 0.0
2017-Dec-10 00:42N 34°07' E 135°07'0 0.0
2017-Dec-10 00:24N 34°07' E 135°07'1 0.1
2017-Dec-09 04:32N 34°08' E 135°07'111.8
2017-Dec-09 04:29N 34°09' E 135°07'611.7
2017-Dec-09 04:00N 34°14' E 135°04'510.0
2017-Dec-09 03:30N 34°19' E 135°05'510.2
2017-Dec-09 03:00N 34°23' E 135°09'510.3
2017-Dec-09 02:30N 34°27' E 135°12'611.2
2017-Dec-09 02:00N 34°31' E 135°17'611.4
2017-Dec-09 01:30N 34°36' E 135°21'5 9.6
2017-Dec-09 01:00N 34°39' E 135°25'0 0.0
2017-Dec-09 00:30N 34°39' E 135°25'0 0.0
2017-Dec-09 00:00N 34°39' E 135°25'0 0.0
2017-Dec-08 23:30N 34°39' E 135°25'0 0.2
2017-Dec-08 23:00N 34°39' E 135°25'4 6.9
2017-Dec-08 22:30N 34°36' E 135°23'  
Track history (hours):
 
Tides and Currents Weather Stations Pressure Air Temp Water Temp Dewpoint Dewpoint Depression Visibility Wind Speed Wind Dir Waves Ship Positions

Asahi Maru No.8

Last reported at 2017-Dec-18 22:00 UTC. Time now 2017-Dec-18 22:25 UTC.
Position N 34°10' E 135°06'.

Length 67 m.

Type: Tanker. MMSI: 431300304.

Date/timePositionNaut miles runAvg speedWind from/ knotsBaromVisibWave heightAir tempDewpointWater temp
2017-Dec-18 22:00N 34°10' E 135°06'4 2.8
2017-Dec-18 20:34N 34°07' E 135°09'0 0.0
2017-Dec-18 20:28N 34°07' E 135°09'0 0.0
2017-Dec-18 17:04N 34°07' E 135°09'0 0.1
2017-Dec-18 16:40N 34°07' E 135°09'0 0.0
2017-Dec-18 16:28N 34°07' E 135°09'3 0.3
2017-Dec-18 05:05N 34°10' E 135°06'111.1
2017-Dec-18 04:59N 34°11' E 135°06'611.1
2017-Dec-18 04:25N 34°17' E 135°03'511.9
2017-Dec-18 04:00N 34°21' E 135°06'611.3
2017-Dec-18 03:30N 34°25' E 135°11'510.8
2017-Dec-18 03:00N 34°29' E 135°16'510.6
2017-Dec-18 02:30N 34°32' E 135°21'4 8.1
2017-Dec-18 01:59N 34°33' E 135°26'0 0.0
2017-Dec-18 01:29N 34°33' E 135°26'0 0.0
2017-Dec-18 00:59N 34°33' E 135°26'0 0.0
2017-Dec-18 00:29N 34°33' E 135°26'0 0.0
2017-Dec-17 23:59N 34°33' E 135°26'0 0.0
2017-Dec-17 23:29N 34°33' E 135°26'2 4.4
2017-Dec-17 23:00N 34°32' E 135°24'1 1.2
2017-Dec-17 22:29N 34°31' E 135°24'0 0.0
2017-Dec-17 22:00N 34°31' E 135°24'0 0.0
2017-Dec-17 21:26N 34°31' E 135°24'0 0.0
2017-Dec-17 20:56N 34°31' E 135°24'0 0.0
2017-Dec-17 20:29N 34°31' E 135°24'0 0.0
2017-Dec-17 19:56N 34°31' E 135°24'0 0.0
2017-Dec-17 19:29N 34°31' E 135°24'0 0.0
2017-Dec-17 18:59N 34°31' E 135°24'0 0.0
2017-Dec-17 18:29N 34°31' E 135°24'0 0.0
2017-Dec-17 17:59N 34°31' E 135°24'0 0.0
2017-Dec-17 17:29N 34°31' E 135°24'0 0.0
2017-Dec-17 16:59N 34°31' E 135°24'0 0.0
2017-Dec-17 16:26N 34°31' E 135°24'0 0.0
2017-Dec-17 15:59N 34°31' E 135°24'0 0.0
2017-Dec-17 15:29N 34°31' E 135°24'0 0.0
2017-Dec-17 14:59N 34°31' E 135°24'0 0.0
2017-Dec-17 14:29N 34°31' E 135°24'0 0.0
2017-Dec-17 13:59N 34°31' E 135°24'0 0.0
2017-Dec-17 13:29N 34°31' E 135°24'0 0.0
2017-Dec-17 12:59N 34°31' E 135°24'0 0.0
2017-Dec-17 12:29N 34°31' E 135°24'0 0.0
2017-Dec-17 11:59N 34°31' E 135°24'0 0.0
2017-Dec-17 11:29N 34°31' E 135°24'0 0.0
2017-Dec-17 10:59N 34°31' E 135°24'0 0.0
2017-Dec-17 10:26N 34°31' E 135°24'0 0.0
2017-Dec-17 09:59N 34°31' E 135°24'0 0.0
2017-Dec-17 09:29N 34°31' E 135°24'0 0.0
2017-Dec-17 08:59N 34°31' E 135°24'0 0.0
2017-Dec-17 08:26N 34°31' E 135°24'0 0.0
2017-Dec-17 07:59N 34°31' E 135°24'0 0.0
2017-Dec-17 07:29N 34°31' E 135°24'0 0.0
2017-Dec-17 06:59N 34°31' E 135°24'0 0.0
2017-Dec-17 06:29N 34°31' E 135°24'0 0.0
2017-Dec-17 05:59N 34°31' E 135°24'0 0.0
2017-Dec-17 05:29N 34°31' E 135°24'0 0.0
2017-Dec-17 04:56N 34°31' E 135°24'0 0.0
2017-Dec-17 04:30N 34°31' E 135°24'4 8.1
2017-Dec-17 04:00N 34°32' E 135°20'612.1
2017-Dec-17 03:30N 34°34' E 135°12'612.3
2017-Dec-17 03:00N 34°35' E 135°05'612.7
2017-Dec-17 02:30N 34°37' E 134°58'612.4
2017-Dec-17 01:59N 34°40' E 134°51'3 0.1
2017-Dec-16 07:21N 34°42' E 134°50'3 7.9
2017-Dec-16 06:59N 34°39' E 134°51'4 9.1
2017-Dec-16 06:30N 34°38' E 134°56'5 9.1
2017-Dec-16 06:00N 34°37' E 135°02'4 8.6
2017-Dec-16 05:30N 34°36' E 135°07'5 9.9
2017-Dec-16 05:00N 34°35' E 135°13'510.1
2017-Dec-16 04:30N 34°34' E 135°19'510.2
2017-Dec-16 04:00N 34°33' E 135°25'1 1.9
2017-Dec-16 03:29N 34°33' E 135°26'0 0.0
2017-Dec-16 02:56N 34°33' E 135°26'0 0.0
2017-Dec-16 02:29N 34°33' E 135°26'0 0.0
2017-Dec-16 02:00N 34°33' E 135°26'2 5.1
2017-Dec-16 01:30N 34°35' E 135°24'3 6.7
2017-Dec-16 01:01N 34°38' E 135°23'2 3.1
2017-Dec-16 00:29N 34°39' E 135°25'0 0.0
2017-Dec-15 23:59N 34°39' E 135°25'0 0.0
2017-Dec-15 23:29N 34°39' E 135°25'0 0.0
2017-Dec-15 22:59N 34°39' E 135°25'2 3.3
2017-Dec-15 22:30N 34°38' E 135°23'3 4.9
2017-Dec-15 21:59N 34°36' E 135°23'0 0.0
2017-Dec-15 21:29N 34°36' E 135°23'0 0.0
2017-Dec-15 20:59N 34°36' E 135°23'0 0.1
2017-Dec-15 20:29N 34°36' E 135°23'0 0.1
2017-Dec-15 19:59N 34°36' E 135°23'0 0.0
2017-Dec-15 19:29N 34°36' E 135°23'0 0.0
2017-Dec-15 18:59N 34°36' E 135°23'0 0.0
2017-Dec-15 18:23N 34°36' E 135°23'0 0.0
2017-Dec-15 17:59N 34°36' E 135°23'0 0.0
2017-Dec-15 17:29N 34°36' E 135°23'0 0.0
2017-Dec-15 16:59N 34°36' E 135°23'0 0.0
2017-Dec-15 16:29N 34°36' E 135°23'0 0.0
2017-Dec-15 15:59N 34°36' E 135°23'0 0.0
2017-Dec-15 15:29N 34°36' E 135°23'0 0.0
2017-Dec-15 14:59N 34°36' E 135°23'0 0.0
2017-Dec-15 14:29N 34°36' E 135°23'0 0.0
2017-Dec-15 13:59N 34°36' E 135°23'0 0.0
2017-Dec-15 13:29N 34°36' E 135°23'0 0.0
2017-Dec-15 12:59N 34°36' E 135°23'0 0.0
2017-Dec-15 12:29N 34°36' E 135°23'0 0.1
2017-Dec-15 11:59N 34°36' E 135°23'1 1.9
2017-Dec-15 11:30N 34°35' E 135°22'510.4
2017-Dec-15 11:00N 34°31' E 135°18'510.4
2017-Dec-15 10:30N 34°27' E 135°13'510.6
2017-Dec-15 10:00N 34°24' E 135°09'510.6
2017-Dec-15 09:30N 34°19' E 135°05'510.3
2017-Dec-15 09:00N 34°14' E 135°04'8 2.2
2017-Dec-15 05:22N 34°07' E 135°08'3 9.1
2017-Dec-15 05:00N 34°10' E 135°06'612.3
2017-Dec-15 04:30N 34°16' E 135°03'713.1
2017-Dec-15 04:01N 34°22' E 135°03'1610.8
2017-Dec-15 02:30N 34°37' E 134°56'7 0.4
2017-Dec-14 09:56N 34°42' E 134°50'4 9.1
2017-Dec-14 09:28N 34°38' E 134°53'511.3
2017-Dec-14 09:00N 34°38' E 134°59'611.6
2017-Dec-14 08:30N 34°36' E 135°06'510.6
2017-Dec-14 08:00N 34°35' E 135°12'510.7
2017-Dec-14 07:30N 34°34' E 135°19'510.6
2017-Dec-14 07:00N 34°33' E 135°25'1 1.5
2017-Dec-14 06:30N 34°33' E 135°26'0 0.0
2017-Dec-14 05:59N 34°33' E 135°26'0 0.0
2017-Dec-14 05:26N 34°33' E 135°26'0 0.0
2017-Dec-14 04:59N 34°33' E 135°26'1 2.1
2017-Dec-14 04:30N 34°33' E 135°25'611.6
2017-Dec-14 04:00N 34°34' E 135°18'612.1
2017-Dec-14 03:30N 34°34' E 135°10'612.8
2017-Dec-14 03:00N 34°36' E 135°03'713.5
2017-Dec-14 02:30N 34°38' E 134°55'6 0.9
2017-Dec-13 20:17N 34°42' E 134°50'0 0.0
2017-Dec-13 19:56N 34°42' E 134°50'0 0.1
2017-Dec-13 19:11N 34°42' E 134°50'0 0.0
2017-Dec-13 18:53N 34°42' E 134°50'0 0.0
2017-Dec-13 10:13N 34°42' E 134°50'2 8.7
2017-Dec-13 09:59N 34°40' E 134°51'5 9.4
2017-Dec-13 09:30N 34°38' E 134°55'510.2
2017-Dec-13 09:00N 34°37' E 135°02'510.3
2017-Dec-13 08:30N 34°36' E 135°08'510.0
2017-Dec-13 08:00N 34°35' E 135°13'5 9.8
2017-Dec-13 07:30N 34°34' E 135°19'5 9.8
2017-Dec-13 07:00N 34°33' E 135°25'1 1.0
2017-Dec-13 06:29N 34°33' E 135°26'0 0.0
2017-Dec-13 05:59N 34°33' E 135°26'0 0.0
2017-Dec-13 05:29N 34°33' E 135°26'0 0.0
2017-Dec-13 05:00N 34°33' E 135°26'2 3.8
2017-Dec-13 04:30N 34°33' E 135°24'611.8
2017-Dec-13 04:00N 34°33' E 135°16'612.3
2017-Dec-13 03:30N 34°34' E 135°09'713.4
2017-Dec-13 03:00N 34°37' E 135°02'713.1
2017-Dec-13 02:30N 34°38' E 134°54'5 0.3
2017-Dec-12 08:53N 34°42' E 134°50'5 8.3
2017-Dec-12 08:18N 34°38' E 134°53'310.3
2017-Dec-12 08:00N 34°38' E 134°57'611.1
2017-Dec-12 07:30N 34°36' E 135°04'510.3
2017-Dec-12 07:00N 34°35' E 135°10'510.2
2017-Dec-12 06:30N 34°35' E 135°16'510.2
2017-Dec-12 06:00N 34°34' E 135°22'3 6.4
2017-Dec-12 05:29N 34°33' E 135°26'0 0.0
2017-Dec-12 04:56N 34°33' E 135°26'0 0.0
2017-Dec-12 04:29N 34°33' E 135°26'0 0.0
2017-Dec-12 03:59N 34°33' E 135°26'0 0.0
2017-Dec-12 03:29N 34°33' E 135°26'0 0.2
2017-Dec-12 03:00N 34°33' E 135°26'2 3.6
2017-Dec-12 02:30N 34°33' E 135°24'2 3.9
2017-Dec-12 01:59N 34°31' E 135°24'0 0.0
2017-Dec-12 01:29N 34°31' E 135°24'0 0.0
2017-Dec-12 00:59N 34°31' E 135°24'0 0.0
2017-Dec-12 00:29N 34°31' E 135°24'0 0.0
2017-Dec-11 23:56N 34°31' E 135°24'0 0.0
2017-Dec-11 23:29N 34°31' E 135°24'0 0.0
2017-Dec-11 22:59N 34°31' E 135°24'0 0.0
2017-Dec-11 22:30N 34°31' E 135°24'3 5.7
2017-Dec-11 22:00N 34°32' E 135°21'611.1
2017-Dec-11 21:30N 34°27' E 135°18'3 5.6
2017-Dec-11 21:01N 34°25' E 135°15'0 0.0
2017-Dec-11 20:28N 34°25' E 135°15'0 0.0
2017-Dec-11 19:58N 34°25' E 135°15'0 0.0
2017-Dec-11 19:30N 34°25' E 135°15'0 0.0
2017-Dec-11 19:00N 34°25' E 135°15'0 0.0
2017-Dec-11 18:30N 34°25' E 135°15'0 0.0
2017-Dec-11 18:00N 34°25' E 135°15'0 0.0
2017-Dec-11 17:30N 34°25' E 135°15'0 0.0
2017-Dec-11 17:00N 34°25' E 135°15'0 0.0
2017-Dec-11 16:30N 34°25' E 135°15'0 0.0
2017-Dec-11 16:00N 34°25' E 135°15'0 0.0
2017-Dec-11 15:28N 34°25' E 135°15'0 0.0
2017-Dec-11 14:58N 34°25' E 135°15'0 0.0
2017-Dec-11 14:28N 34°25' E 135°15'0 0.0
2017-Dec-11 13:52N 34°25' E 135°15'0 0.0
2017-Dec-11 13:28N 34°25' E 135°15'0 0.0
2017-Dec-11 12:55N 34°25' E 135°15'0 0.0
2017-Dec-11 12:28N 34°25' E 135°15'0 0.0
2017-Dec-11 12:00N 34°25' E 135°15'0 0.0
2017-Dec-11 11:30N 34°25' E 135°15'0 0.0
2017-Dec-11 11:00N 34°25' E 135°15'0 0.0
2017-Dec-11 10:30N 34°25' E 135°15'0 0.0
2017-Dec-11 09:57N 34°25' E 135°15'0 0.0
2017-Dec-11 09:27N 34°25' E 135°15'0 0.0
2017-Dec-11 09:00N 34°25' E 135°15'0 0.7
2017-Dec-11 08:30N 34°25' E 135°15'611.6
2017-Dec-11 08:00N 34°21' E 135°09'611.7
2017-Dec-11 07:30N 34°18' E 135°04'1 1.1
2017-Dec-11 06:52N 34°17' E 135°04'3 8.7
2017-Dec-11 06:31N 34°15' E 135°06'1 0.4
2017-Dec-11 02:41N 34°14' E 135°08'0 0.7
2017-Dec-11 02:28N 34°14' E 135°08'1 2.0
2017-Dec-11 02:00N 34°14' E 135°06'4 7.5
2017-Dec-11 01:30N 34°11' E 135°06'4 0.2
2017-Dec-10 01:54N 34°07' E 135°07'0 0.0
2017-Dec-10 01:18N 34°07' E 135°07'0 0.0
2017-Dec-10 00:42N 34°07' E 135°07'0 0.0
2017-Dec-10 00:24N 34°07' E 135°07'1 0.1
2017-Dec-09 04:32N 34°08' E 135°07'111.8
2017-Dec-09 04:29N 34°09' E 135°07'611.7
2017-Dec-09 04:00N 34°14' E 135°04'510.0
2017-Dec-09 03:30N 34°19' E 135°05'510.2
2017-Dec-09 03:00N 34°23' E 135°09'510.3
2017-Dec-09 02:30N 34°27' E 135°12'611.2
2017-Dec-09 02:00N 34°31' E 135°17'611.4
2017-Dec-09 01:30N 34°36' E 135°21'5 9.6
2017-Dec-09 01:00N 34°39' E 135°25'0 0.0
2017-Dec-09 00:30N 34°39' E 135°25'0 0.0
2017-Dec-09 00:00N 34°39' E 135°25'0 0.0
2017-Dec-08 23:30N 34°39' E 135°25'0 0.2
2017-Dec-08 23:00N 34°39' E 135°25'4 6.9
2017-Dec-08 22:30N 34°36' E 135°23'  

Dump ship's entire track history